This is the latest recevied weather packets stored in our database for station/object SP6TSE-13. If no packets are shown the sender has not sent any weather packets the latest 10 day(s).
| Time | Temp. | Humidity | Pressure | Rain* | Wind** | Luminosity | Snow |
|---|---|---|---|---|---|---|---|
| 1777721575 | 23.89° C | 27% | 998.8 hPa | - | - | 0 W/m² | - |
| 1777720375 | 22.78° C | 27% | 999.2 hPa | - | - | 0 W/m² | - |
| 1777715575 | 22.78° C | 29% | 1000.1 hPa | - | - | 0 W/m² | - |
| 1777711975 | 23.33° C | 30% | 1000.4 hPa | - | - | 0 W/m² | - |
| 1777707175 | 13.33° C | 65% | 1000.7 hPa | - | - | 0 W/m² | - |
| 1777705375 | 13.33° C | 65% | 1000.7 hPa | - | - | 0 W/m² | - |
| 1777701175 | 13.33° C | 65% | 1000.7 hPa | - | - | 0 W/m² | - |
| 1777694575 | 7.78° C | 76% | 1000.9 hPa | - | - | 0 W/m² | - |
| 1777692775 | 7.78° C | 81% | 1001 hPa | - | - | 0 W/m² | - |
| 1777692175 | 7.78° C | 81% | 1001 hPa | - | - | 0 W/m² | - |
| 1777690375 | 7.22° C | 85% | 1000.9 hPa | - | - | 0 W/m² | - |
| 1777687375 | 7.22° C | 85% | 1000.9 hPa | - | - | 0 W/m² | - |
| 1777682575 | 7.22° C | 84% | 1001.4 hPa | - | - | 0 W/m² | - |
| 1777675375 | 8.89° C | 74% | 1001.5 hPa | - | - | 0 W/m² | - |
| 1777674177 | 8.89° C | 74% | 1001.5 hPa | - | - | 0 W/m² | - |
| 1777673575 | 8.89° C | 74% | 1001.5 hPa | - | - | 0 W/m² | - |
| 1777669375 | 16.67° C | 42% | 1001.4 hPa | - | - | 0 W/m² | - |
| 1777668775 | 16.67° C | 42% | 1001.4 hPa | - | - | 0 W/m² | - |
| 1777665775 | 16.67° C | 42% | 1001.4 hPa | - | - | 0 W/m² | - |
| 1777664575 | 16.67° C | 42% | 1001.4 hPa | - | - | 0 W/m² | - |
| 1777663975 | 16.67° C | 42% | 1001.4 hPa | - | - | 0 W/m² | - |
| 1777655575 | 20.56° C | 35% | 1000.8 hPa | - | - | 0 W/m² | - |
| 1777653775 | 22.22° C | 31% | 1000.9 hPa | - | - | 0 W/m² | - |
| 1777651974 | 21.11° C | 33% | 1001.6 hPa | - | - | 0 W/m² | - |
| 1777642975 | 21.11° C | 33% | 1001.9 hPa | - | - | 0 W/m² | - |
* Rain since midnight (hover to see other rain measurements)
** Current wind speed in m/s (hover to see current wind gust speed)